createdAt,value
2019-04-28T00:01:47.606Z,13.95
2019-04-28T00:04:16.660Z,12.28
2019-04-28T00:06:45.729Z,12.70
2019-04-28T00:09:15.948Z,16.05
2019-04-28T00:11:45.007Z,14.30
2019-04-28T00:14:14.058Z,12.07
2019-04-28T00:16:43.099Z,14.73
2019-04-28T00:19:12.165Z,14.53
2019-04-28T00:21:42.847Z,14.87
2019-04-28T00:24:13.563Z,12.82
2019-04-28T00:26:44.265Z,13.45
2019-04-28T00:29:13.397Z,16.27
2019-04-28T00:31:42.445Z,15.25
2019-04-28T00:34:11.665Z,12.70
2019-04-28T00:36:42.996Z,11.85
2019-04-28T00:39:12.612Z,13.93
2019-04-28T00:41:42.170Z,13.00
2019-04-28T00:44:11.947Z,13.95
2019-04-28T00:46:42.402Z,12.53
2019-04-28T00:49:11.943Z,10.80
2019-04-28T00:51:41.594Z,10.58
2019-04-28T00:54:12.154Z,12.50
2019-04-28T00:56:41.999Z,10.85
2019-04-28T00:59:12.016Z,11.12
2019-04-28T01:01:45.748Z,11.28
2019-04-28T01:04:14.582Z,9.65
2019-04-28T01:06:43.631Z,10.40
2019-04-28T01:09:12.924Z,10.10
2019-04-28T01:11:42.031Z,9.95
2019-04-28T01:14:30.974Z,10.20
2019-04-28T01:17:17.006Z,9.53
2019-04-28T01:19:56.595Z,10.65
2019-04-28T01:22:25.708Z,12.07
2019-04-28T01:24:54.764Z,12.37
2019-04-28T01:27:30.241Z,10.95
2019-04-28T01:30:08.301Z,9.88
2019-04-28T01:32:39.947Z,9.38
2019-04-28T01:35:09.578Z,10.13
2019-04-28T01:37:40.595Z,9.60
2019-04-28T01:40:10.418Z,9.35
2019-04-28T01:42:41.188Z,9.13
2019-04-28T01:45:10.669Z,9.60
2019-04-28T01:47:40.476Z,9.45
2019-04-28T01:50:10.260Z,9.78
2019-04-28T01:52:40.089Z,9.23
2019-04-28T01:55:10.139Z,9.18
2019-04-28T01:57:39.980Z,10.23
2019-04-28T02:00:21.931Z,10.38
2019-04-28T02:05:11.013Z,8.38
2019-04-28T02:07:40.717Z,8.08
2019-04-28T02:10:10.319Z,6.62
2019-04-28T02:12:40.316Z,6.30
2019-04-28T02:15:10.468Z,7.12
2019-04-28T02:17:40.262Z,5.90
2019-04-28T02:20:10.392Z,5.03
2019-04-28T02:22:41.299Z,5.80
2019-04-28T02:25:10.863Z,4.92
2019-04-28T02:27:40.187Z,4.70
2019-04-28T02:30:11.469Z,5.62
2019-04-28T02:32:41.319Z,5.42
2019-04-28T02:35:10.903Z,5.80
2019-04-28T02:37:40.708Z,4.92
2019-04-28T02:40:10.827Z,5.70
2019-04-28T02:42:40.902Z,6.03
2019-04-28T02:45:11.659Z,6.17
2019-04-28T02:47:42.212Z,5.67
2019-04-28T02:50:30.488Z,6.20
2019-04-28T02:53:04.578Z,6.55
2019-04-28T02:55:33.377Z,4.58
2019-04-28T02:58:02.459Z,5.97
2019-04-28T03:00:32.025Z,6.53
2019-04-28T03:03:01.610Z,6.17
2019-04-28T03:05:33.427Z,6.03
2019-04-28T03:08:01.653Z,6.80
2019-04-28T03:10:31.284Z,5.80
2019-04-28T03:13:01.338Z,5.72
2019-04-28T03:15:30.818Z,6.08
2019-04-28T03:18:01.711Z,5.75
2019-04-28T03:20:30.912Z,5.15
2019-04-28T03:23:01.098Z,5.50
2019-04-28T03:25:40.747Z,6.12
2019-04-28T03:28:11.967Z,5.65
2019-04-28T03:30:46.055Z,5.85
2019-04-28T03:33:18.949Z,5.50
2019-04-28T03:35:47.231Z,5.45
2019-04-28T03:38:16.424Z,5.90
2019-04-28T03:40:45.510Z,5.42
2019-04-28T03:43:14.864Z,5.22
2019-04-28T03:45:45.621Z,4.70
2019-04-28T03:48:14.665Z,4.40
2019-04-28T03:50:43.709Z,4.37
2019-04-28T03:53:12.819Z,5.10
2019-04-28T03:55:41.885Z,4.53
2019-04-28T03:58:11.001Z,4.60
2019-04-28T04:00:40.933Z,4.55
2019-04-28T04:03:10.945Z,4.17
2019-04-28T04:05:40.749Z,4.55
2019-04-28T04:08:10.958Z,4.28
2019-04-28T04:11:00.255Z,4.53
2019-04-28T04:13:47.382Z,4.55
2019-04-28T04:16:30.892Z,4.25
2019-04-28T04:19:01.801Z,4.00
2019-04-28T04:21:31.131Z,4.30
2019-04-28T04:24:01.187Z,4.22
2019-04-28T04:26:33.231Z,4.10
2019-04-28T04:29:01.285Z,3.87
2019-04-28T04:31:31.826Z,3.85
2019-04-28T04:34:03.304Z,4.05
2019-04-28T04:36:31.918Z,4.03
2019-04-28T04:39:02.064Z,3.75
2019-04-28T04:41:31.394Z,4.10
2019-04-28T04:44:01.330Z,4.28
2019-04-28T04:46:31.639Z,4.28
2019-04-28T04:49:01.004Z,4.67
2019-04-28T04:51:30.836Z,4.65
2019-04-28T04:54:01.156Z,4.17
2019-04-28T04:56:30.620Z,4.03
2019-04-28T04:59:02.098Z,5.05
2019-04-28T05:01:32.084Z,4.10
2019-04-28T05:04:02.784Z,4.85
2019-04-28T05:06:36.364Z,4.50
2019-04-28T05:09:10.406Z,4.35
2019-04-28T05:14:11.556Z,3.77
2019-04-28T05:16:40.003Z,3.52
2019-04-28T05:19:10.217Z,3.85
2019-04-28T05:21:40.132Z,4.17
2019-04-28T05:24:17.598Z,3.35
2019-04-28T05:26:49.594Z,3.85
2019-04-28T05:29:21.801Z,3.70
2019-04-28T05:31:50.352Z,4.00
2019-04-28T05:34:20.472Z,3.87
2019-04-28T05:36:50.535Z,4.58
2019-04-28T05:39:19.862Z,4.12
2019-04-28T05:41:50.453Z,4.40
2019-04-28T05:44:20.249Z,3.90
2019-04-28T05:46:50.575Z,4.42
2019-04-28T05:49:27.568Z,4.20
2019-04-28T05:52:14.204Z,3.98
2019-04-28T05:54:44.939Z,3.70
2019-04-28T05:57:15.692Z,4.37
2019-04-28T05:59:50.594Z,4.25
2019-04-28T06:02:22.024Z,4.37
2019-04-28T06:04:51.165Z,4.47
2019-04-28T06:07:30.584Z,4.75
2019-04-28T06:10:00.149Z,3.87
2019-04-28T06:12:31.669Z,3.85
2019-04-28T06:15:00.266Z,4.00
2019-04-28T06:17:29.552Z,4.22
2019-04-28T06:20:00.197Z,4.03
2019-04-28T06:22:29.337Z,4.42
2019-04-28T06:24:58.377Z,3.90
2019-04-28T06:27:27.431Z,4.00
2019-04-28T06:29:56.465Z,3.10
2019-04-28T06:32:25.519Z,3.37
2019-04-28T06:34:54.613Z,3.47
2019-04-28T06:37:23.685Z,3.60
2019-04-28T06:39:52.766Z,3.35
2019-04-28T06:42:21.892Z,3.45
2019-04-28T06:44:50.999Z,3.85
2019-04-28T06:47:20.074Z,3.37
2019-04-28T06:49:49.173Z,3.17
2019-04-28T06:52:18.215Z,3.25
2019-04-28T06:54:47.244Z,3.02
2019-04-28T06:57:16.296Z,3.42
2019-04-28T06:59:45.336Z,3.40
2019-04-28T07:02:14.387Z,3.35
2019-04-28T07:04:43.423Z,3.08
2019-04-28T07:07:12.456Z,2.83
2019-04-28T07:09:41.572Z,2.87
2019-04-28T07:12:10.625Z,3.05
2019-04-28T07:14:39.654Z,3.00
2019-04-28T07:17:08.693Z,2.55
2019-04-28T07:19:37.723Z,2.83
2019-04-28T07:22:08.405Z,2.50
2019-04-28T07:24:37.445Z,2.80
2019-04-28T07:27:07.719Z,2.30
2019-04-28T07:29:36.752Z,2.47
2019-04-28T07:32:05.869Z,3.05
2019-04-28T07:34:34.903Z,2.37
2019-04-28T07:37:03.943Z,2.45
2019-04-28T07:39:32.982Z,2.75
2019-04-28T07:42:02.030Z,2.83
2019-04-28T07:44:31.132Z,2.50
2019-04-28T07:47:00.153Z,2.33
2019-04-28T07:49:29.196Z,2.67
2019-04-28T07:52:02.543Z,2.55
2019-04-28T07:54:31.651Z,1.90
2019-04-28T07:57:00.669Z,2.05
2019-04-28T07:59:29.718Z,2.50
2019-04-28T08:01:58.732Z,2.70
2019-04-28T08:04:27.767Z,2.40
2019-04-28T08:06:56.792Z,2.90
2019-04-28T08:09:33.185Z,2.83
2019-04-28T08:12:13.319Z,2.52
2019-04-28T08:14:43.001Z,2.80
2019-04-28T08:17:12.028Z,2.52
2019-04-28T08:19:41.070Z,3.02
2019-04-28T08:22:10.104Z,2.85
2019-04-28T08:24:39.131Z,2.65
2019-04-28T08:27:08.161Z,2.77
2019-04-28T08:29:37.204Z,2.72
2019-04-28T08:35:07.956Z,2.87
2019-04-28T08:37:36.986Z,2.60
2019-04-28T08:40:06.168Z,2.70
2019-04-28T08:42:35.200Z,3.05
2019-04-28T08:45:06.584Z,2.42
2019-04-28T08:47:35.606Z,2.40
2019-04-28T08:50:05.485Z,2.72
2019-04-28T08:52:34.513Z,3.10
2019-04-28T08:55:06.039Z,3.35
2019-04-28T08:57:35.072Z,2.90
2019-04-28T09:00:06.837Z,2.83
2019-04-28T09:02:35.867Z,2.52
2019-04-28T09:05:05.946Z,2.67
2019-04-28T09:07:34.976Z,2.27
2019-04-28T09:10:07.097Z,2.65
2019-04-28T09:12:36.132Z,2.87
2019-04-28T09:15:06.930Z,3.40
2019-04-28T09:17:35.960Z,3.08
2019-04-28T09:20:08.557Z,2.87
2019-04-28T09:22:37.581Z,3.05
2019-04-28T09:25:07.682Z,3.05
2019-04-28T09:27:36.722Z,2.83
2019-04-28T09:30:07.551Z,2.80
2019-04-28T09:32:36.595Z,3.35
2019-04-28T09:35:07.992Z,3.58
2019-04-28T09:37:37.102Z,2.95
2019-04-28T09:40:09.410Z,3.52
2019-04-28T09:42:40.168Z,2.92
2019-04-28T09:48:08.087Z,2.98
2019-04-28T09:50:37.120Z,2.80
2019-04-28T09:53:06.165Z,2.92
2019-04-28T09:55:35.183Z,2.90
2019-04-28T09:58:04.296Z,3.00
2019-04-28T10:00:33.702Z,2.80
2019-04-28T10:03:02.755Z,3.45
2019-04-28T10:05:31.860Z,3.47
2019-04-28T10:08:00.911Z,3.70
2019-04-28T10:10:29.936Z,2.80
2019-04-28T10:12:58.991Z,3.08
2019-04-28T10:15:28.016Z,2.72
2019-04-28T10:17:57.059Z,2.80
2019-04-28T10:20:26.084Z,3.35
2019-04-28T10:22:55.135Z,3.10
2019-04-28T10:25:24.167Z,3.40
2019-04-28T10:27:53.212Z,3.35
2019-04-28T10:30:22.303Z,3.27
2019-04-28T10:32:51.338Z,3.15
2019-04-28T10:35:20.444Z,3.65
2019-04-28T10:37:49.563Z,3.27
2019-04-28T10:40:40.502Z,3.77
2019-04-28T10:43:09.680Z,3.85
2019-04-28T10:45:48.946Z,3.72
2019-04-28T10:48:18.147Z,3.80
2019-04-28T10:50:47.256Z,4.10
2019-04-28T10:53:16.314Z,4.05
2019-04-28T10:55:45.421Z,3.70
2019-04-28T10:58:14.512Z,4.20
2019-04-28T11:00:43.549Z,3.42
2019-04-28T11:03:12.593Z,4.20
2019-04-28T11:05:45.649Z,4.40
2019-04-28T11:08:19.388Z,4.35
2019-04-28T11:10:48.214Z,4.78
2019-04-28T11:13:17.531Z,4.75
2019-04-28T11:15:46.575Z,4.78
2019-04-28T11:18:16.160Z,4.97
2019-04-28T11:21:04.555Z,4.45
2019-04-28T11:23:33.671Z,4.40
2019-04-28T11:26:02.713Z,4.72
2019-04-28T11:28:31.753Z,5.05
2019-04-28T11:31:00.812Z,5.12
2019-04-28T11:33:31.496Z,4.92
2019-04-28T11:36:00.729Z,5.72
2019-04-28T11:38:29.767Z,5.47
2019-04-28T11:40:58.896Z,5.30
2019-04-28T11:43:28.024Z,5.58
2019-04-28T11:45:57.149Z,6.10
2019-04-28T11:48:26.195Z,5.35
2019-04-28T11:50:55.241Z,5.60
2019-04-28T11:53:24.461Z,6.47
2019-04-28T11:55:53.553Z,6.00
2019-04-28T11:58:22.628Z,5.50
2019-04-28T12:00:51.679Z,5.92
2019-04-28T12:03:20.812Z,6.20
2019-04-28T12:05:49.868Z,5.42
2019-04-28T12:08:18.918Z,5.85
2019-04-28T12:11:05.840Z,5.87
2019-04-28T12:13:36.524Z,6.30
2019-04-28T12:16:07.217Z,5.80
2019-04-28T12:18:37.904Z,6.03
2019-04-28T12:21:06.956Z,5.67
2019-04-28T12:23:35.999Z,5.25
2019-04-28T12:26:05.056Z,6.17
2019-04-28T12:28:37.051Z,5.70
2019-04-28T12:31:06.091Z,5.37
2019-04-28T12:33:35.136Z,5.97
2019-04-28T12:36:06.406Z,6.05
2019-04-28T12:38:35.539Z,5.67
2019-04-28T12:41:06.169Z,5.12
2019-04-28T12:43:35.177Z,5.80
2019-04-28T12:46:04.376Z,5.58
2019-04-28T12:48:33.411Z,5.37
2019-04-28T12:51:02.468Z,5.83
2019-04-28T12:53:31.519Z,6.37
2019-04-28T12:56:00.576Z,5.58
2019-04-28T12:58:29.624Z,5.70
2019-04-28T13:01:03.209Z,6.62
2019-04-28T13:03:45.852Z,7.42
2019-04-28T13:06:19.102Z,6.05
2019-04-28T13:08:48.145Z,6.20
2019-04-28T13:11:17.294Z,6.05
2019-04-28T13:13:47.013Z,5.53
2019-04-28T13:16:16.159Z,5.17
2019-04-28T13:18:45.216Z,5.72
2019-04-28T13:21:14.336Z,5.95
2019-04-28T13:23:43.411Z,5.67
2019-04-28T13:26:12.465Z,5.55
2019-04-28T13:28:41.537Z,4.92
2019-04-28T13:31:10.571Z,4.90
2019-04-28T13:33:53.785Z,4.47
2019-04-28T13:36:14.921Z,5.35
2019-04-28T13:38:41.306Z,5.50
2019-04-28T13:41:10.354Z,5.60
2019-04-28T13:43:39.408Z,5.72
2019-04-28T13:46:08.521Z,5.65
2019-04-28T13:48:37.586Z,6.03
2019-04-28T13:51:06.647Z,5.75
2019-04-28T13:53:36.082Z,5.70
2019-04-28T13:56:05.267Z,5.53
2019-04-28T13:58:35.104Z,6.37
2019-04-28T14:01:15.232Z,5.70
2019-04-28T14:04:02.185Z,5.53
2019-04-28T14:06:32.869Z,5.60
2019-04-28T14:09:01.972Z,5.97
2019-04-28T14:11:31.060Z,5.80
2019-04-28T14:14:00.127Z,5.92
2019-04-28T14:16:29.248Z,6.05
2019-04-28T14:18:58.328Z,5.95
2019-04-28T14:21:27.380Z,5.35
2019-04-28T14:23:56.444Z,6.17
2019-04-28T14:26:25.562Z,6.70
2019-04-28T14:28:54.648Z,6.78
2019-04-28T14:31:23.778Z,6.33
2019-04-28T14:33:52.934Z,5.97
2019-04-28T14:36:22.026Z,6.53
2019-04-28T14:38:51.079Z,6.62
2019-04-28T14:41:20.275Z,5.72
2019-04-28T14:43:49.328Z,6.72
2019-04-28T14:46:18.384Z,5.83
2019-04-28T14:48:47.433Z,5.92
2019-04-28T14:51:16.865Z,5.80
2019-04-28T14:53:45.908Z,5.75
2019-04-28T14:56:15.034Z,5.55
2019-04-28T14:58:48.197Z,5.42
2019-04-28T15:01:28.199Z,5.58
2019-04-28T15:03:58.960Z,5.80
2019-04-28T15:06:35.953Z,5.25
2019-04-28T15:09:14.808Z,5.95
2019-04-28T15:11:45.657Z,6.05
2019-04-28T15:14:14.740Z,5.42
2019-04-28T15:16:44.201Z,4.78
2019-04-28T15:19:13.319Z,4.90
2019-04-28T15:21:42.493Z,5.42
2019-04-28T15:24:11.819Z,6.35
2019-04-28T15:26:41.011Z,5.30
2019-04-28T15:29:10.128Z,4.90
2019-04-28T15:31:39.184Z,4.40
2019-04-28T15:34:08.238Z,5.40
2019-04-28T15:36:37.329Z,4.75
2019-04-28T15:39:09.418Z,4.75
2019-04-28T15:41:38.477Z,5.10
2019-04-28T15:44:07.525Z,4.60
2019-04-28T15:46:36.590Z,4.67
2019-04-28T15:49:05.721Z,5.40
2019-04-28T15:51:34.852Z,5.03
2019-04-28T15:54:03.981Z,4.70
2019-04-28T15:56:34.752Z,4.80
2019-04-28T15:59:04.274Z,4.33
2019-04-28T16:01:33.331Z,5.03
2019-04-28T16:04:02.381Z,4.87
2019-04-28T16:06:31.440Z,4.85
2019-04-28T16:09:00.489Z,4.60
2019-04-28T16:11:48.889Z,4.08
2019-04-28T16:14:17.936Z,4.12
2019-04-28T16:16:47.169Z,4.17
2019-04-28T16:19:16.271Z,4.90
2019-04-28T16:21:45.337Z,4.30
2019-04-28T16:24:14.530Z,4.42
2019-04-28T16:26:43.668Z,4.15
2019-04-28T16:29:12.736Z,4.25
2019-04-28T16:31:41.967Z,4.40
2019-04-28T16:34:11.019Z,3.52
2019-04-28T16:36:40.069Z,3.50
2019-04-28T16:39:09.121Z,3.58
2019-04-28T16:41:38.164Z,4.05
2019-04-28T16:44:07.215Z,3.52
2019-04-28T16:46:36.236Z,3.52
2019-04-28T16:49:05.352Z,3.40
2019-04-28T16:51:34.412Z,3.77
2019-04-28T16:54:03.447Z,3.35
2019-04-28T16:56:34.186Z,3.90
2019-04-28T16:59:05.244Z,3.75
2019-04-28T17:01:41.861Z,3.65
2019-04-28T17:04:10.925Z,4.40
2019-04-28T17:06:40.021Z,4.35
2019-04-28T17:09:10.081Z,3.98
2019-04-28T17:11:39.126Z,4.10
2019-04-28T17:14:08.190Z,4.30
2019-04-28T17:16:37.412Z,4.47
2019-04-28T17:19:06.459Z,5.12
2019-04-28T17:21:35.566Z,4.97
2019-04-28T17:24:04.760Z,4.92
2019-04-28T17:26:33.888Z,5.33
2019-04-28T17:29:03.024Z,5.40
2019-04-28T17:31:32.139Z,6.12
2019-04-28T17:34:01.205Z,6.45
2019-04-28T17:36:30.429Z,7.20
2019-04-28T17:38:59.491Z,7.37
2019-04-28T17:41:28.681Z,7.55
2019-04-28T17:43:57.825Z,7.92
2019-04-28T17:46:26.880Z,8.78
2019-04-28T17:48:57.576Z,8.38
2019-04-28T17:51:27.222Z,8.38
2019-04-28T17:53:56.268Z,8.98
2019-04-28T17:56:25.392Z,8.93
2019-04-28T17:58:54.452Z,8.70
2019-04-28T18:01:25.143Z,8.75
2019-04-28T18:03:55.851Z,8.90
2019-04-28T18:06:26.537Z,9.10
2019-04-28T18:08:57.357Z,8.43
2019-04-28T18:11:26.405Z,9.38
2019-04-28T18:13:55.473Z,8.58
2019-04-28T18:16:42.304Z,9.18
2019-04-28T18:22:04.919Z,8.83
2019-04-28T18:24:34.094Z,7.97
2019-04-28T18:27:03.149Z,9.00
2019-04-28T18:29:32.201Z,7.83
2019-04-28T18:32:05.824Z,8.70
2019-04-28T18:34:36.247Z,7.75
2019-04-28T18:37:10.436Z,7.40
2019-04-28T18:39:57.798Z,7.40
2019-04-28T18:42:28.514Z,7.30
2019-04-28T18:44:57.636Z,7.78
2019-04-28T18:47:26.679Z,7.78
2019-04-28T18:49:55.746Z,7.80
2019-04-28T18:52:24.796Z,7.50
2019-04-28T18:54:53.872Z,7.58
2019-04-28T18:57:22.920Z,7.10
2019-04-28T18:59:52.048Z,7.53
2019-04-28T19:02:31.801Z,7.62
2019-04-28T19:05:00.943Z,6.95
2019-04-28T19:07:49.676Z,7.25
2019-04-28T19:10:20.376Z,7.97
2019-04-28T19:13:03.306Z,7.62
2019-04-28T19:15:43.007Z,8.05
2019-04-28T19:18:27.654Z,8.13
2019-04-28T19:20:44.484Z,7.92
2019-04-28T19:23:13.536Z,9.70
2019-04-28T19:25:42.660Z,9.05
2019-04-28T19:28:11.717Z,9.43
2019-04-28T19:30:41.349Z,10.63
2019-04-28T19:33:10.388Z,9.40
2019-04-28T19:35:39.435Z,10.45
2019-04-28T19:38:08.563Z,10.53
2019-04-28T19:40:37.612Z,9.88
2019-04-28T19:43:06.680Z,9.90
2019-04-28T19:45:37.357Z,10.40
2019-04-28T19:48:06.424Z,11.33
2019-04-28T19:50:35.456Z,10.55
2019-04-28T19:53:04.531Z,10.13
2019-04-28T19:55:38.296Z,11.55
2019-04-28T19:58:24.944Z,8.53
2019-04-28T20:00:58.531Z,10.80
2019-04-28T20:03:27.291Z,12.03
2019-04-28T20:05:56.349Z,10.82
2019-04-28T20:08:25.407Z,12.53
2019-04-28T20:10:54.455Z,12.80
2019-04-28T20:13:23.512Z,12.37
2019-04-28T20:15:52.559Z,12.35
2019-04-28T20:18:21.619Z,13.40
2019-04-28T20:20:50.671Z,12.95
2019-04-28T20:23:19.738Z,11.90
2019-04-28T20:25:48.796Z,12.37
2019-04-28T20:28:17.859Z,12.78
2019-04-28T20:30:46.902Z,13.43
2019-04-28T20:33:16.028Z,13.45
2019-04-28T20:35:46.805Z,12.85
2019-04-28T20:38:17.484Z,11.97
2019-04-28T20:40:48.177Z,12.30
2019-04-28T20:43:18.879Z,12.78
2019-04-28T20:45:47.920Z,12.80
2019-04-28T20:48:16.975Z,11.95
2019-04-28T20:50:46.016Z,12.90
2019-04-28T20:53:15.132Z,12.60
2019-04-28T20:55:44.184Z,12.53
2019-04-28T20:58:13.224Z,13.22
2019-04-28T21:00:43.220Z,12.88
2019-04-28T21:03:12.262Z,13.62
2019-04-28T21:05:41.315Z,14.20
2019-04-28T21:08:10.374Z,14.33
2019-04-28T21:10:39.427Z,13.25
2019-04-28T21:13:08.476Z,12.15
2019-04-28T21:15:37.536Z,14.25
2019-04-28T21:18:06.585Z,16.62
2019-04-28T21:20:35.636Z,16.05
2019-04-28T21:23:04.751Z,17.37
2019-04-28T21:25:33.812Z,16.40
2019-04-28T21:28:02.861Z,16.30
2019-04-28T21:30:31.922Z,17.30
2019-04-28T21:33:00.951Z,13.58
2019-04-28T21:35:30.012Z,14.28
2019-04-28T21:37:59.132Z,16.20
2019-04-28T21:40:28.560Z,13.65
2019-04-28T21:43:08.328Z,14.43
2019-04-28T21:45:51.068Z,15.23
2019-04-28T21:48:37.019Z,14.58
2019-04-28T21:51:06.079Z,14.00
2019-04-28T21:53:35.130Z,14.25
2019-04-28T21:56:04.258Z,13.98
2019-04-28T21:58:33.809Z,17.23
2019-04-28T22:01:03.351Z,15.93
2019-04-28T22:03:32.404Z,15.98
2019-04-28T22:06:01.469Z,16.30
2019-04-28T22:08:30.525Z,16.55
2019-04-28T22:10:59.651Z,15.32
2019-04-28T22:13:28.700Z,18.75
2019-04-28T22:15:57.760Z,17.02
2019-04-28T22:18:26.802Z,15.85
2019-04-28T22:20:55.928Z,17.42
2019-04-28T22:23:32.487Z,18.00
2019-04-28T22:26:01.549Z,18.77
2019-04-28T22:28:30.596Z,20.97
2019-04-28T22:30:59.664Z,22.90
2019-04-28T22:33:28.725Z,22.85
2019-04-28T22:35:57.780Z,27.00
2019-04-28T22:38:26.838Z,26.48
2019-04-28T22:41:15.237Z,25.15
2019-04-28T22:43:44.259Z,26.25
2019-04-28T22:46:13.324Z,25.88
2019-04-28T22:48:42.375Z,24.65
2019-04-28T22:51:11.418Z,25.72
2019-04-28T22:53:40.542Z,25.92
2019-04-28T22:56:11.239Z,26.87
2019-04-28T22:58:41.931Z,24.65
2019-04-28T23:01:18.527Z,24.47
2019-04-28T23:03:49.292Z,26.40
2019-04-28T23:06:18.382Z,25.43
2019-04-28T23:08:47.471Z,26.82
2019-04-28T23:11:16.695Z,25.08
2019-04-28T23:13:45.755Z,26.10
2019-04-28T23:16:14.877Z,24.82
2019-04-28T23:18:43.938Z,26.20
2019-04-28T23:21:20.587Z,25.25
2019-04-28T23:23:49.784Z,26.45
2019-04-28T23:26:18.823Z,25.77
2019-04-28T23:28:47.876Z,26.17
2019-04-28T23:31:16.915Z,26.15
2019-04-28T23:33:45.964Z,30.62
2019-04-28T23:36:15.007Z,23.65
2019-04-28T23:38:44.065Z,22.30
2019-04-28T23:41:31.288Z,23.52
2019-04-28T23:44:00.347Z,24.15
2019-04-28T23:46:47.344Z,25.00
2019-04-28T23:49:16.407Z,24.52
2019-04-28T23:51:47.118Z,24.77
2019-04-28T23:54:16.236Z,24.02
2019-04-28T23:56:45.285Z,23.87
2019-04-28T23:59:14.367Z,25.37
